sensor_id;sensor_type;location;lat;lon;timestamp;P1;durP1;ratioP1;P2;durP2;ratioP2
40244;SDS011;25963;42.694;23.600;2023-12-29T00:02:09;33.40;;;18.05;;
40244;SDS011;25963;42.694;23.600;2023-12-29T00:04:34;24.70;;;13.35;;
40244;SDS011;25963;42.694;23.600;2023-12-29T00:07:00;26.50;;;13.85;;
40244;SDS011;25963;42.694;23.600;2023-12-29T00:09:26;23.77;;;14.70;;
40244;SDS011;25963;42.694;23.600;2023-12-29T00:11:52;29.75;;;15.70;;
40244;SDS011;25963;42.694;23.600;2023-12-29T00:14:19;28.88;;;15.45;;
40244;SDS011;25963;42.694;23.600;2023-12-29T00:16:44;31.33;;;16.90;;
40244;SDS011;25963;42.694;23.600;2023-12-29T00:19:11;31.13;;;16.80;;
40244;SDS011;25963;42.694;23.600;2023-12-29T00:21:37;33.25;;;18.75;;
40244;SDS011;25963;42.694;23.600;2023-12-29T00:24:03;36.63;;;18.90;;
40244;SDS011;25963;42.694;23.600;2023-12-29T00:26:30;33.67;;;17.65;;
40244;SDS011;25963;42.694;23.600;2023-12-29T00:28:55;35.97;;;20.10;;
40244;SDS011;25963;42.694;23.600;2023-12-29T00:31:20;32.85;;;17.85;;
40244;SDS011;25963;42.694;23.600;2023-12-29T00:33:46;27.98;;;16.75;;
40244;SDS011;25963;42.694;23.600;2023-12-29T00:36:18;32.97;;;17.30;;
40244;SDS011;25963;42.694;23.600;2023-12-29T00:38:45;33.83;;;16.83;;
40244;SDS011;25963;42.694;23.600;2023-12-29T00:41:10;25.80;;;14.80;;
40244;SDS011;25963;42.694;23.600;2023-12-29T00:43:36;29.33;;;15.02;;
40244;SDS011;25963;42.694;23.600;2023-12-29T00:46:02;28.13;;;13.77;;
40244;SDS011;25963;42.694;23.600;2023-12-29T00:48:28;26.00;;;14.23;;
40244;SDS011;25963;42.694;23.600;2023-12-29T00:50:54;30.42;;;16.65;;
40244;SDS011;25963;42.694;23.600;2023-12-29T00:53:20;33.05;;;15.73;;
40244;SDS011;25963;42.694;23.600;2023-12-29T00:55:45;32.22;;;16.60;;
40244;SDS011;25963;42.694;23.600;2023-12-29T00:58:11;24.08;;;14.07;;
40244;SDS011;25963;42.694;23.600;2023-12-29T01:00:37;29.08;;;12.52;;
40244;SDS011;25963;42.694;23.600;2023-12-29T01:03:02;27.48;;;14.63;;
40244;SDS011;25963;42.694;23.600;2023-12-29T01:05:28;21.08;;;11.48;;
40244;SDS011;25963;42.694;23.600;2023-12-29T01:07:54;21.40;;;11.18;;
40244;SDS011;25963;42.694;23.600;2023-12-29T01:10:19;24.17;;;13.38;;
40244;SDS011;25963;42.694;23.600;2023-12-29T01:12:45;20.60;;;11.48;;
40244;SDS011;25963;42.694;23.600;2023-12-29T01:15:10;27.42;;;13.15;;
40244;SDS011;25963;42.694;23.600;2023-12-29T01:17:36;23.05;;;12.75;;
40244;SDS011;25963;42.694;23.600;2023-12-29T01:20:01;20.98;;;9.98;;
40244;SDS011;25963;42.694;23.600;2023-12-29T01:22:29;23.63;;;10.73;;
40244;SDS011;25963;42.694;23.600;2023-12-29T01:24:54;20.55;;;11.90;;
40244;SDS011;25963;42.694;23.600;2023-12-29T01:27:20;19.80;;;11.65;;
40244;SDS011;25963;42.694;23.600;2023-12-29T01:29:45;22.35;;;11.88;;
40244;SDS011;25963;42.694;23.600;2023-12-29T01:32:11;24.60;;;10.95;;
40244;SDS011;25963;42.694;23.600;2023-12-29T01:34:36;19.90;;;9.85;;
40244;SDS011;25963;42.694;23.600;2023-12-29T01:37:02;16.38;;;10.07;;
40244;SDS011;25963;42.694;23.600;2023-12-29T01:39:29;17.48;;;9.18;;
40244;SDS011;25963;42.694;23.600;2023-12-29T01:41:55;18.15;;;10.98;;
40244;SDS011;25963;42.694;23.600;2023-12-29T01:44:22;23.42;;;10.73;;
40244;SDS011;25963;42.694;23.600;2023-12-29T01:46:52;20.25;;;10.75;;
40244;SDS011;25963;42.694;23.600;2023-12-29T01:49:19;16.80;;;10.13;;
40244;SDS011;25963;42.694;23.600;2023-12-29T01:51:49;19.38;;;9.73;;
40244;SDS011;25963;42.694;23.600;2023-12-29T01:54:18;29.92;;;13.80;;
40244;SDS011;25963;42.694;23.600;2023-12-29T01:56:44;19.08;;;9.93;;
40244;SDS011;25963;42.694;23.600;2023-12-29T01:59:11;22.25;;;11.18;;
40244;SDS011;25963;42.694;23.600;2023-12-29T02:01:37;19.13;;;9.43;;
40244;SDS011;25963;42.694;23.600;2023-12-29T02:04:06;17.08;;;9.50;;
40244;SDS011;25963;42.694;23.600;2023-12-29T02:06:33;17.75;;;8.32;;
40244;SDS011;25963;42.694;23.600;2023-12-29T02:09:00;15.50;;;8.25;;
40244;SDS011;25963;42.694;23.600;2023-12-29T02:11:26;15.32;;;8.60;;
40244;SDS011;25963;42.694;23.600;2023-12-29T02:13:52;18.75;;;9.55;;
40244;SDS011;25963;42.694;23.600;2023-12-29T02:16:23;18.42;;;8.98;;
40244;SDS011;25963;42.694;23.600;2023-12-29T02:18:54;16.85;;;9.05;;
40244;SDS011;25963;42.694;23.600;2023-12-29T02:21:24;15.95;;;9.05;;
40244;SDS011;25963;42.694;23.600;2023-12-29T02:23:50;14.95;;;7.30;;
40244;SDS011;25963;42.694;23.600;2023-12-29T02:26:16;14.35;;;7.88;;
40244;SDS011;25963;42.694;23.600;2023-12-29T02:28:44;17.67;;;8.48;;
40244;SDS011;25963;42.694;23.600;2023-12-29T02:31:14;13.85;;;7.72;;
40244;SDS011;25963;42.694;23.600;2023-12-29T02:33:44;12.82;;;8.63;;
40244;SDS011;25963;42.694;23.600;2023-12-29T02:36:12;13.45;;;7.57;;
40244;SDS011;25963;42.694;23.600;2023-12-29T02:38:39;22.98;;;9.45;;
40244;SDS011;25963;42.694;23.600;2023-12-29T02:41:05;20.38;;;9.77;;
40244;SDS011;25963;42.694;23.600;2023-12-29T02:43:31;25.42;;;12.95;;
40244;SDS011;25963;42.694;23.600;2023-12-29T02:45:57;26.48;;;12.02;;
40244;SDS011;25963;42.694;23.600;2023-12-29T02:48:23;16.30;;;8.50;;
40244;SDS011;25963;42.694;23.600;2023-12-29T02:50:48;25.65;;;9.70;;
40244;SDS011;25963;42.694;23.600;2023-12-29T02:53:13;21.88;;;11.82;;
40244;SDS011;25963;42.694;23.600;2023-12-29T02:55:39;19.13;;;10.48;;
40244;SDS011;25963;42.694;23.600;2023-12-29T02:58:04;18.05;;;9.70;;
40244;SDS011;25963;42.694;23.600;2023-12-29T03:00:30;20.48;;;10.50;;
40244;SDS011;25963;42.694;23.600;2023-12-29T03:02:55;18.73;;;10.27;;
40244;SDS011;25963;42.694;23.600;2023-12-29T03:05:20;16.90;;;9.40;;
40244;SDS011;25963;42.694;23.600;2023-12-29T03:07:46;16.02;;;8.52;;
40244;SDS011;25963;42.694;23.600;2023-12-29T03:10:11;16.27;;;9.10;;
40244;SDS011;25963;42.694;23.600;2023-12-29T03:12:37;16.38;;;8.77;;
40244;SDS011;25963;42.694;23.600;2023-12-29T03:15:03;13.80;;;8.73;;
40244;SDS011;25963;42.694;23.600;2023-12-29T03:17:28;16.23;;;9.85;;
40244;SDS011;25963;42.694;23.600;2023-12-29T03:19:54;15.70;;;8.30;;
40244;SDS011;25963;42.694;23.600;2023-12-29T03:22:19;15.57;;;8.13;;
40244;SDS011;25963;42.694;23.600;2023-12-29T03:24:46;17.48;;;9.98;;
40244;SDS011;25963;42.694;23.600;2023-12-29T03:27:11;20.08;;;9.82;;
40244;SDS011;25963;42.694;23.600;2023-12-29T03:29:37;18.00;;;9.23;;
40244;SDS011;25963;42.694;23.600;2023-12-29T03:32:02;19.60;;;11.05;;
40244;SDS011;25963;42.694;23.600;2023-12-29T03:34:28;23.80;;;11.88;;
40244;SDS011;25963;42.694;23.600;2023-12-29T03:36:54;19.25;;;10.38;;
40244;SDS011;25963;42.694;23.600;2023-12-29T03:39:19;20.50;;;10.25;;
40244;SDS011;25963;42.694;23.600;2023-12-29T03:41:44;18.70;;;9.43;;
40244;SDS011;25963;42.694;23.600;2023-12-29T03:44:10;16.95;;;8.27;;
40244;SDS011;25963;42.694;23.600;2023-12-29T03:46:35;18.25;;;10.65;;
40244;SDS011;25963;42.694;23.600;2023-12-29T03:49:01;21.33;;;10.20;;
40244;SDS011;25963;42.694;23.600;2023-12-29T03:51:28;19.83;;;11.00;;
40244;SDS011;25963;42.694;23.600;2023-12-29T03:53:53;16.15;;;9.38;;
40244;SDS011;25963;42.694;23.600;2023-12-29T03:56:19;18.45;;;10.45;;
40244;SDS011;25963;42.694;23.600;2023-12-29T03:58:45;21.27;;;10.68;;
40244;SDS011;25963;42.694;23.600;2023-12-29T04:01:14;23.83;;;10.70;;
40244;SDS011;25963;42.694;23.600;2023-12-29T04:03:40;23.60;;;10.43;;
40244;SDS011;25963;42.694;23.600;2023-12-29T04:06:06;21.02;;;10.27;;
40244;SDS011;25963;42.694;23.600;2023-12-29T04:08:33;18.63;;;10.15;;
40244;SDS011;25963;42.694;23.600;2023-12-29T04:10:59;23.60;;;10.73;;
40244;SDS011;25963;42.694;23.600;2023-12-29T04:13:24;43.80;;;19.05;;
40244;SDS011;25963;42.694;23.600;2023-12-29T04:15:50;23.30;;;12.95;;
40244;SDS011;25963;42.694;23.600;2023-12-29T04:18:15;42.28;;;18.05;;
40244;SDS011;25963;42.694;23.600;2023-12-29T04:20:41;34.45;;;17.30;;
40244;SDS011;25963;42.694;23.600;2023-12-29T04:23:06;26.48;;;12.07;;
40244;SDS011;25963;42.694;23.600;2023-12-29T04:25:32;23.60;;;12.15;;
40244;SDS011;25963;42.694;23.600;2023-12-29T04:27:58;17.02;;;10.45;;
40244;SDS011;25963;42.694;23.600;2023-12-29T04:30:24;18.35;;;9.77;;
40244;SDS011;25963;42.694;23.600;2023-12-29T04:32:49;21.63;;;11.07;;
40244;SDS011;25963;42.694;23.600;2023-12-29T04:35:15;19.90;;;11.77;;
40244;SDS011;25963;42.694;23.600;2023-12-29T04:37:41;25.92;;;13.88;;
40244;SDS011;25963;42.694;23.600;2023-12-29T04:40:09;24.77;;;13.48;;
40244;SDS011;25963;42.694;23.600;2023-12-29T04:42:35;26.58;;;13.68;;
40244;SDS011;25963;42.694;23.600;2023-12-29T04:45:00;29.73;;;15.43;;
40244;SDS011;25963;42.694;23.600;2023-12-29T04:47:26;29.05;;;15.38;;
40244;SDS011;25963;42.694;23.600;2023-12-29T04:49:51;40.17;;;17.83;;
40244;SDS011;25963;42.694;23.600;2023-12-29T04:52:17;32.40;;;17.27;;
40244;SDS011;25963;42.694;23.600;2023-12-29T04:54:42;31.17;;;17.67;;
40244;SDS011;25963;42.694;23.600;2023-12-29T04:57:08;32.60;;;18.05;;
40244;SDS011;25963;42.694;23.600;2023-12-29T04:59:34;39.13;;;20.58;;
40244;SDS011;25963;42.694;23.600;2023-12-29T05:01:59;33.53;;;20.52;;
40244;SDS011;25963;42.694;23.600;2023-12-29T05:04:24;50.90;;;21.83;;
40244;SDS011;25963;42.694;23.600;2023-12-29T05:06:50;45.42;;;23.13;;
40244;SDS011;25963;42.694;23.600;2023-12-29T05:09:15;39.80;;;21.38;;
40244;SDS011;25963;42.694;23.600;2023-12-29T05:11:40;44.38;;;22.05;;
40244;SDS011;25963;42.694;23.600;2023-12-29T05:14:06;43.40;;;22.02;;
40244;SDS011;25963;42.694;23.600;2023-12-29T05:16:31;39.63;;;20.90;;
40244;SDS011;25963;42.694;23.600;2023-12-29T05:18:57;42.35;;;25.08;;
40244;SDS011;25963;42.694;23.600;2023-12-29T05:21:22;40.80;;;22.80;;
40244;SDS011;25963;42.694;23.600;2023-12-29T05:23:49;53.28;;;29.08;;
40244;SDS011;25963;42.694;23.600;2023-12-29T05:26:15;47.03;;;28.05;;
40244;SDS011;25963;42.694;23.600;2023-12-29T05:28:41;47.70;;;24.17;;
40244;SDS011;25963;42.694;23.600;2023-12-29T05:31:06;51.40;;;25.00;;
40244;SDS011;25963;42.694;23.600;2023-12-29T05:33:32;64.65;;;31.65;;
40244;SDS011;25963;42.694;23.600;2023-12-29T05:35:58;67.10;;;32.42;;
40244;SDS011;25963;42.694;23.600;2023-12-29T05:38:24;54.00;;;26.73;;
40244;SDS011;25963;42.694;23.600;2023-12-29T05:40:49;52.03;;;27.55;;
40244;SDS011;25963;42.694;23.600;2023-12-29T05:43:15;57.45;;;27.98;;
40244;SDS011;25963;42.694;23.600;2023-12-29T05:45:41;46.45;;;24.90;;
40244;SDS011;25963;42.694;23.600;2023-12-29T05:48:06;50.22;;;22.13;;
40244;SDS011;25963;42.694;23.600;2023-12-29T05:50:32;48.63;;;23.25;;
40244;SDS011;25963;42.694;23.600;2023-12-29T05:52:58;48.20;;;23.38;;
40244;SDS011;25963;42.694;23.600;2023-12-29T05:55:23;48.75;;;24.67;;
40244;SDS011;25963;42.694;23.600;2023-12-29T05:57:49;29.80;;;16.58;;
40244;SDS011;25963;42.694;23.600;2023-12-29T06:00:14;36.97;;;20.08;;
40244;SDS011;25963;42.694;23.600;2023-12-29T06:02:41;36.42;;;16.73;;
40244;SDS011;25963;42.694;23.600;2023-12-29T06:05:07;47.53;;;25.58;;
40244;SDS011;25963;42.694;23.600;2023-12-29T06:07:33;34.85;;;17.23;;
40244;SDS011;25963;42.694;23.600;2023-12-29T06:09:59;41.97;;;17.13;;
40244;SDS011;25963;42.694;23.600;2023-12-29T06:12:24;31.35;;;16.65;;
40244;SDS011;25963;42.694;23.600;2023-12-29T06:14:50;50.50;;;26.25;;
40244;SDS011;25963;42.694;23.600;2023-12-29T06:17:15;44.67;;;20.88;;
40244;SDS011;25963;42.694;23.600;2023-12-29T06:19:41;37.45;;;19.17;;
40244;SDS011;25963;42.694;23.600;2023-12-29T06:22:06;54.53;;;20.95;;
40244;SDS011;25963;42.694;23.600;2023-12-29T06:24:36;43.17;;;19.13;;
40244;SDS011;25963;42.694;23.600;2023-12-29T06:27:02;37.30;;;18.15;;
40244;SDS011;25963;42.694;23.600;2023-12-29T06:29:28;38.92;;;18.40;;
40244;SDS011;25963;42.694;23.600;2023-12-29T06:31:53;35.30;;;17.73;;
40244;SDS011;25963;42.694;23.600;2023-12-29T06:34:18;36.20;;;19.58;;
40244;SDS011;25963;42.694;23.600;2023-12-29T06:36:44;47.20;;;20.23;;
40244;SDS011;25963;42.694;23.600;2023-12-29T06:39:10;64.55;;;27.63;;
40244;SDS011;25963;42.694;23.600;2023-12-29T06:41:35;49.58;;;22.08;;
40244;SDS011;25963;42.694;23.600;2023-12-29T06:44:01;40.13;;;21.40;;
40244;SDS011;25963;42.694;23.600;2023-12-29T06:46:26;1264.95;;;412.85;;
40244;SDS011;25963;42.694;23.600;2023-12-29T06:48:51;821.08;;;278.80;;
40244;SDS011;25963;42.694;23.600;2023-12-29T06:51:17;748.85;;;230.23;;
40244;SDS011;25963;42.694;23.600;2023-12-29T06:53:44;225.85;;;73.78;;
40244;SDS011;25963;42.694;23.600;2023-12-29T06:56:15;178.57;;;60.05;;
40244;SDS011;25963;42.694;23.600;2023-12-29T06:58:41;331.27;;;91.68;;
40244;SDS011;25963;42.694;23.600;2023-12-29T07:01:07;341.30;;;95.07;;
40244;SDS011;25963;42.694;23.600;2023-12-29T07:03:32;175.25;;;66.30;;
40244;SDS011;25963;42.694;23.600;2023-12-29T07:05:59;208.43;;;68.07;;
40244;SDS011;25963;42.694;23.600;2023-12-29T07:08:26;133.20;;;52.42;;
40244;SDS011;25963;42.694;23.600;2023-12-29T07:10:51;71.25;;;34.10;;
40244;SDS011;25963;42.694;23.600;2023-12-29T07:13:17;104.03;;;41.88;;
40244;SDS011;25963;42.694;23.600;2023-12-29T07:15:42;85.28;;;37.20;;
40244;SDS011;25963;42.694;23.600;2023-12-29T07:18:08;72.25;;;36.10;;
40244;SDS011;25963;42.694;23.600;2023-12-29T07:20:33;99.85;;;45.28;;
40244;SDS011;25963;42.694;23.600;2023-12-29T07:22:59;89.65;;;41.35;;
40244;SDS011;25963;42.694;23.600;2023-12-29T07:25:25;72.13;;;34.45;;
40244;SDS011;25963;42.694;23.600;2023-12-29T07:27:50;88.85;;;44.40;;
40244;SDS011;25963;42.694;23.600;2023-12-29T07:30:17;69.40;;;36.75;;
40244;SDS011;25963;42.694;23.600;2023-12-29T07:32:43;58.03;;;31.63;;
40244;SDS011;25963;42.694;23.600;2023-12-29T07:35:08;40.65;;;23.25;;
40244;SDS011;25963;42.694;23.600;2023-12-29T07:37:34;58.35;;;32.35;;
40244;SDS011;25963;42.694;23.600;2023-12-29T07:39:59;68.10;;;32.78;;
40244;SDS011;25963;42.694;23.600;2023-12-29T07:42:25;62.53;;;37.10;;
40244;SDS011;25963;42.694;23.600;2023-12-29T07:44:50;65.47;;;39.45;;
40244;SDS011;25963;42.694;23.600;2023-12-29T07:47:16;62.22;;;34.25;;
40244;SDS011;25963;42.694;23.600;2023-12-29T07:49:42;57.58;;;30.60;;
40244;SDS011;25963;42.694;23.600;2023-12-29T07:52:08;54.95;;;28.10;;
40244;SDS011;25963;42.694;23.600;2023-12-29T07:54:33;51.13;;;27.70;;
40244;SDS011;25963;42.694;23.600;2023-12-29T07:56:59;48.83;;;27.23;;
40244;SDS011;25963;42.694;23.600;2023-12-29T07:59:25;53.28;;;29.42;;
40244;SDS011;25963;42.694;23.600;2023-12-29T08:01:51;55.28;;;29.92;;
40244;SDS011;25963;42.694;23.600;2023-12-29T08:04:17;57.75;;;32.42;;
40244;SDS011;25963;42.694;23.600;2023-12-29T08:06:42;58.47;;;32.33;;
40244;SDS011;25963;42.694;23.600;2023-12-29T08:09:07;71.10;;;37.38;;
40244;SDS011;25963;42.694;23.600;2023-12-29T08:11:33;68.60;;;36.67;;
40244;SDS011;25963;42.694;23.600;2023-12-29T08:13:58;61.38;;;35.17;;
40244;SDS011;25963;42.694;23.600;2023-12-29T08:16:24;54.58;;;31.80;;
40244;SDS011;25963;42.694;23.600;2023-12-29T08:18:55;65.80;;;36.28;;
40244;SDS011;25963;42.694;23.600;2023-12-29T08:21:20;57.78;;;33.60;;
40244;SDS011;25963;42.694;23.600;2023-12-29T08:23:47;58.13;;;32.28;;
40244;SDS011;25963;42.694;23.600;2023-12-29T08:26:13;47.88;;;27.80;;
40244;SDS011;25963;42.694;23.600;2023-12-29T08:28:39;53.33;;;29.42;;
40244;SDS011;25963;42.694;23.600;2023-12-29T08:31:04;51.78;;;28.90;;
40244;SDS011;25963;42.694;23.600;2023-12-29T08:33:31;54.42;;;31.10;;
40244;SDS011;25963;42.694;23.600;2023-12-29T08:35:57;54.58;;;33.88;;
40244;SDS011;25963;42.694;23.600;2023-12-29T08:38:26;45.55;;;28.63;;
40244;SDS011;25963;42.694;23.600;2023-12-29T08:40:51;54.17;;;29.85;;
40244;SDS011;25963;42.694;23.600;2023-12-29T08:43:17;48.55;;;28.77;;
40244;SDS011;25963;42.694;23.600;2023-12-29T08:45:46;47.20;;;28.75;;
40244;SDS011;25963;42.694;23.600;2023-12-29T08:48:14;43.33;;;27.15;;
40244;SDS011;25963;42.694;23.600;2023-12-29T08:50:39;45.08;;;26.92;;
40244;SDS011;25963;42.694;23.600;2023-12-29T08:53:05;43.60;;;26.13;;
40244;SDS011;25963;42.694;23.600;2023-12-29T08:55:30;50.03;;;27.48;;
40244;SDS011;25963;42.694;23.600;2023-12-29T08:57:56;41.58;;;27.30;;
40244;SDS011;25963;42.694;23.600;2023-12-29T09:00:22;43.63;;;28.15;;
40244;SDS011;25963;42.694;23.600;2023-12-29T09:02:48;47.88;;;28.73;;
40244;SDS011;25963;42.694;23.600;2023-12-29T09:05:14;40.83;;;25.83;;
40244;SDS011;25963;42.694;23.600;2023-12-29T09:07:39;41.55;;;25.58;;
40244;SDS011;25963;42.694;23.600;2023-12-29T09:10:05;41.55;;;26.45;;
40244;SDS011;25963;42.694;23.600;2023-12-29T09:12:37;43.97;;;27.23;;
40244;SDS011;25963;42.694;23.600;2023-12-29T09:15:03;44.05;;;27.25;;
40244;SDS011;25963;42.694;23.600;2023-12-29T09:17:29;41.17;;;26.17;;
40244;SDS011;25963;42.694;23.600;2023-12-29T09:19:55;46.17;;;27.70;;
40244;SDS011;25963;42.694;23.600;2023-12-29T09:22:21;42.97;;;26.55;;
40244;SDS011;25963;42.694;23.600;2023-12-29T09:24:46;43.28;;;27.90;;
40244;SDS011;25963;42.694;23.600;2023-12-29T09:27:12;45.13;;;27.27;;
40244;SDS011;25963;42.694;23.600;2023-12-29T09:29:38;42.85;;;28.65;;
40244;SDS011;25963;42.694;23.600;2023-12-29T09:32:05;44.72;;;27.83;;
40244;SDS011;25963;42.694;23.600;2023-12-29T09:34:30;42.80;;;27.90;;
40244;SDS011;25963;42.694;23.600;2023-12-29T09:36:56;47.60;;;28.50;;
40244;SDS011;25963;42.694;23.600;2023-12-29T09:39:21;53.72;;;31.70;;
40244;SDS011;25963;42.694;23.600;2023-12-29T09:41:46;45.75;;;29.00;;
40244;SDS011;25963;42.694;23.600;2023-12-29T09:44:16;58.38;;;34.58;;
40244;SDS011;25963;42.694;23.600;2023-12-29T09:46:45;48.03;;;28.23;;
40244;SDS011;25963;42.694;23.600;2023-12-29T09:49:19;46.45;;;25.35;;
40244;SDS011;25963;42.694;23.600;2023-12-29T09:51:46;38.70;;;26.80;;
40244;SDS011;25963;42.694;23.600;2023-12-29T09:54:13;45.67;;;31.27;;
40244;SDS011;25963;42.694;23.600;2023-12-29T09:56:39;43.88;;;26.83;;
40244;SDS011;25963;42.694;23.600;2023-12-29T09:59:04;37.72;;;23.73;;
40244;SDS011;25963;42.694;23.600;2023-12-29T10:01:33;38.95;;;25.15;;
40244;SDS011;25963;42.694;23.600;2023-12-29T10:03:59;39.83;;;26.58;;
40244;SDS011;25963;42.694;23.600;2023-12-29T10:06:26;43.97;;;27.40;;
40244;SDS011;25963;42.694;23.600;2023-12-29T10:08:52;45.67;;;29.60;;
40244;SDS011;25963;42.694;23.600;2023-12-29T10:11:20;44.65;;;27.90;;
40244;SDS011;25963;42.694;23.600;2023-12-29T10:13:47;39.08;;;25.52;;
40244;SDS011;25963;42.694;23.600;2023-12-29T10:16:24;42.25;;;30.05;;
40244;SDS011;25963;42.694;23.600;2023-12-29T10:21:52;41.45;;;28.92;;
40244;SDS011;25963;42.694;23.600;2023-12-29T10:24:22;46.92;;;30.42;;
40244;SDS011;25963;42.694;23.600;2023-12-29T10:26:49;46.33;;;31.50;;
40244;SDS011;25963;42.694;23.600;2023-12-29T10:29:15;48.25;;;33.25;;
40244;SDS011;25963;42.694;23.600;2023-12-29T10:31:41;50.53;;;30.52;;
40244;SDS011;25963;42.694;23.600;2023-12-29T10:34:22;47.78;;;32.60;;
40244;SDS011;25963;42.694;23.600;2023-12-29T10:36:55;57.75;;;35.08;;
40244;SDS011;25963;42.694;23.600;2023-12-29T10:39:21;49.85;;;33.22;;
40244;SDS011;25963;42.694;23.600;2023-12-29T10:41:48;51.50;;;32.40;;
40244;SDS011;25963;42.694;23.600;2023-12-29T10:44:14;49.35;;;31.92;;
40244;SDS011;25963;42.694;23.600;2023-12-29T10:46:40;52.53;;;32.05;;
40244;SDS011;25963;42.694;23.600;2023-12-29T10:49:06;49.53;;;34.25;;
40244;SDS011;25963;42.694;23.600;2023-12-29T10:51:36;48.60;;;31.30;;
40244;SDS011;25963;42.694;23.600;2023-12-29T10:54:04;45.55;;;30.70;;
40244;SDS011;25963;42.694;23.600;2023-12-29T10:56:30;51.10;;;31.52;;
40244;SDS011;25963;42.694;23.600;2023-12-29T10:59:00;45.40;;;29.45;;
40244;SDS011;25963;42.694;23.600;2023-12-29T11:01:32;49.20;;;30.33;;
40244;SDS011;25963;42.694;23.600;2023-12-29T11:04:02;48.85;;;30.15;;
40244;SDS011;25963;42.694;23.600;2023-12-29T11:06:29;48.63;;;33.33;;
40244;SDS011;25963;42.694;23.600;2023-12-29T11:08:55;51.75;;;33.40;;
40244;SDS011;25963;42.694;23.600;2023-12-29T11:11:22;55.92;;;33.80;;
40244;SDS011;25963;42.694;23.600;2023-12-29T11:13:48;59.10;;;36.08;;
40244;SDS011;25963;42.694;23.600;2023-12-29T11:16:14;53.30;;;31.45;;
40244;SDS011;25963;42.694;23.600;2023-12-29T11:21:12;46.85;;;30.30;;
40244;SDS011;25963;42.694;23.600;2023-12-29T11:23:38;48.80;;;31.30;;
40244;SDS011;25963;42.694;23.600;2023-12-29T11:26:03;44.38;;;29.33;;
40244;SDS011;25963;42.694;23.600;2023-12-29T11:28:29;41.42;;;27.83;;
40244;SDS011;25963;42.694;23.600;2023-12-29T11:30:54;39.42;;;27.27;;
40244;SDS011;25963;42.694;23.600;2023-12-29T11:33:21;32.13;;;22.30;;
40244;SDS011;25963;42.694;23.600;2023-12-29T11:36:33;36.88;;;22.27;;
40244;SDS011;25963;42.694;23.600;2023-12-29T11:44:05;26.67;;;19.23;;
40244;SDS011;25963;42.694;23.600;2023-12-29T11:46:35;31.42;;;22.48;;
40244;SDS011;25963;42.694;23.600;2023-12-29T11:49:05;39.08;;;24.45;;
40244;SDS011;25963;42.694;23.600;2023-12-29T11:51:35;36.08;;;26.65;;
40244;SDS011;25963;42.694;23.600;2023-12-29T11:54:02;31.65;;;23.65;;
40244;SDS011;25963;42.694;23.600;2023-12-29T11:56:37;32.90;;;20.63;;
40244;SDS011;25963;42.694;23.600;2023-12-29T11:59:12;46.28;;;25.58;;
40244;SDS011;25963;42.694;23.600;2023-12-29T12:01:49;36.17;;;23.15;;
40244;SDS011;25963;42.694;23.600;2023-12-29T12:07:05;24.98;;;16.73;;
40244;SDS011;25963;42.694;23.600;2023-12-29T12:09:52;24.98;;;17.92;;
40244;SDS011;25963;42.694;23.600;2023-12-29T12:12:56;30.08;;;19.13;;
40244;SDS011;25963;42.694;23.600;2023-12-29T12:17:54;27.65;;;18.85;;
40244;SDS011;25963;42.694;23.600;2023-12-29T12:20:21;22.83;;;16.98;;
40244;SDS011;25963;42.694;23.600;2023-12-29T12:22:53;27.45;;;18.48;;
40244;SDS011;25963;42.694;23.600;2023-12-29T12:25:27;23.42;;;17.00;;
40244;SDS011;25963;42.694;23.600;2023-12-29T12:27:53;25.77;;;17.35;;
40244;SDS011;25963;42.694;23.600;2023-12-29T12:30:19;35.47;;;25.92;;
40244;SDS011;25963;42.694;23.600;2023-12-29T12:32:45;49.65;;;32.30;;
40244;SDS011;25963;42.694;23.600;2023-12-29T12:35:14;70.53;;;35.03;;
40244;SDS011;25963;42.694;23.600;2023-12-29T12:37:42;167.02;;;87.32;;
40244;SDS011;25963;42.694;23.600;2023-12-29T12:40:08;120.20;;;63.25;;
40244;SDS011;25963;42.694;23.600;2023-12-29T12:42:38;71.35;;;40.25;;
40244;SDS011;25963;42.694;23.600;2023-12-29T12:45:17;88.13;;;46.75;;
40244;SDS011;25963;42.694;23.600;2023-12-29T12:47:45;127.63;;;65.32;;
40244;SDS011;25963;42.694;23.600;2023-12-29T12:50:16;75.82;;;44.50;;
40244;SDS011;25963;42.694;23.600;2023-12-29T12:52:42;42.00;;;26.88;;
40244;SDS011;25963;42.694;23.600;2023-12-29T12:55:07;41.53;;;24.95;;
40244;SDS011;25963;42.694;23.600;2023-12-29T12:57:34;107.22;;;51.35;;
40244;SDS011;25963;42.694;23.600;2023-12-29T13:00:00;59.80;;;34.25;;
40244;SDS011;25963;42.694;23.600;2023-12-29T13:02:28;140.20;;;74.65;;
40244;SDS011;25963;42.694;23.600;2023-12-29T13:04:55;69.70;;;41.42;;
40244;SDS011;25963;42.694;23.600;2023-12-29T13:07:20;32.33;;;23.23;;
40244;SDS011;25963;42.694;23.600;2023-12-29T13:09:47;29.15;;;21.70;;
40244;SDS011;25963;42.694;23.600;2023-12-29T13:12:15;80.38;;;39.72;;
40244;SDS011;25963;42.694;23.600;2023-12-29T13:14:42;59.75;;;33.95;;
40244;SDS011;25963;42.694;23.600;2023-12-29T13:17:12;37.65;;;25.10;;
40244;SDS011;25963;42.694;23.600;2023-12-29T13:19:39;34.00;;;22.17;;
40244;SDS011;25963;42.694;23.600;2023-12-29T13:22:06;32.40;;;23.10;;
40244;SDS011;25963;42.694;23.600;2023-12-29T13:24:33;41.78;;;27.02;;
40244;SDS011;25963;42.694;23.600;2023-12-29T13:27:05;46.10;;;27.42;;
40244;SDS011;25963;42.694;23.600;2023-12-29T13:29:31;54.60;;;33.97;;
40244;SDS011;25963;42.694;23.600;2023-12-29T13:32:22;64.90;;;38.35;;
40244;SDS011;25963;42.694;23.600;2023-12-29T13:35:06;56.22;;;30.77;;
40244;SDS011;25963;42.694;23.600;2023-12-29T13:40:17;31.77;;;22.33;;
40244;SDS011;25963;42.694;23.600;2023-12-29T13:42:47;40.45;;;26.75;;
40244;SDS011;25963;42.694;23.600;2023-12-29T13:45:14;39.15;;;25.45;;
40244;SDS011;25963;42.694;23.600;2023-12-29T13:47:41;51.42;;;31.42;;
40244;SDS011;25963;42.694;23.600;2023-12-29T13:50:08;97.53;;;47.50;;
40244;SDS011;25963;42.694;23.600;2023-12-29T13:52:35;81.10;;;45.25;;
40244;SDS011;25963;42.694;23.600;2023-12-29T13:55:01;44.97;;;28.05;;
40244;SDS011;25963;42.694;23.600;2023-12-29T13:57:33;34.60;;;23.70;;
40244;SDS011;25963;42.694;23.600;2023-12-29T14:00:15;41.22;;;26.98;;
40244;SDS011;25963;42.694;23.600;2023-12-29T14:05:27;57.10;;;35.50;;
40244;SDS011;25963;42.694;23.600;2023-12-29T14:08:00;46.72;;;32.10;;
40244;SDS011;25963;42.694;23.600;2023-12-29T14:10:30;54.03;;;31.13;;
40244;SDS011;25963;42.694;23.600;2023-12-29T14:13:03;55.05;;;34.03;;
40244;SDS011;25963;42.694;23.600;2023-12-29T14:15:46;53.92;;;30.25;;
40244;SDS011;25963;42.694;23.600;2023-12-29T14:23:57;58.97;;;35.97;;
40244;SDS011;25963;42.694;23.600;2023-12-29T14:26:39;74.05;;;42.10;;
40244;SDS011;25963;42.694;23.600;2023-12-29T14:29:17;54.15;;;33.55;;
40244;SDS011;25963;42.694;23.600;2023-12-29T14:31:43;50.63;;;31.05;;
40244;SDS011;25963;42.694;23.600;2023-12-29T14:34:09;65.07;;;33.67;;
40244;SDS011;25963;42.694;23.600;2023-12-29T14:36:36;46.95;;;28.95;;